createdAt,value
2017-07-08T00:00:15.428Z,19.8
2017-07-08T00:00:45.866Z,19.8
2017-07-08T00:01:16.253Z,19.8
2017-07-08T00:01:46.506Z,19.8
2017-07-08T00:02:16.872Z,19.8
2017-07-08T00:03:14.146Z,19.7
2017-07-08T00:04:13.353Z,19.7
2017-07-08T00:05:12.174Z,19.7
2017-07-08T00:06:11.863Z,19.6
2017-07-08T00:07:11.439Z,19.6
2017-07-08T00:08:10.492Z,19.6
2017-07-08T00:09:09.940Z,19.6
2017-07-08T00:10:09.389Z,19.6
2017-07-08T00:11:09.023Z,19.6
2017-07-08T00:12:07.957Z,19.6
2017-07-08T00:13:07.287Z,19.6
2017-07-08T00:14:07.106Z,19.5
2017-07-08T00:15:06.294Z,19.5
2017-07-08T00:16:05.481Z,19.5
2017-07-08T00:17:04.679Z,19.4
2017-07-08T00:18:04.255Z,19.4
2017-07-08T00:19:03.449Z,19.4
2017-07-08T00:19:34.069Z,19.4
2017-07-08T00:20:04.447Z,19.4
2017-07-08T00:20:34.953Z,19.4
2017-07-08T00:22:02.082Z,19.4
2017-07-08T00:23:01.156Z,19.4
2017-07-08T00:24:00.223Z,19.4
2017-07-08T00:24:59.876Z,19.4
2017-07-08T00:25:59.568Z,19.4
2017-07-08T00:26:58.884Z,19.4
2017-07-08T00:27:58.210Z,19.4
2017-07-08T00:28:57.791Z,19.4
2017-07-08T00:29:56.605Z,19.4
2017-07-08T00:30:56.555Z,19.4
2017-07-08T00:31:55.493Z,19.3
2017-07-08T00:32:54.945Z,19.4
2017-07-08T00:33:54.669Z,19.4
2017-07-08T00:34:53.748Z,19.4
2017-07-08T00:35:53.453Z,19.4
2017-07-08T00:36:52.398Z,19.4
2017-07-08T00:37:51.851Z,19.4
2017-07-08T00:38:51.174Z,19.4
2017-07-08T00:39:50.864Z,19.4
2017-07-08T00:40:50.311Z,19.4
2017-07-08T00:41:49.382Z,19.3
2017-07-08T00:42:19.662Z,19.3
2017-07-08T00:42:50.163Z,19.3
2017-07-08T00:43:21.044Z,19.3
2017-07-08T00:44:47.664Z,19.3
2017-07-08T00:45:46.811Z,19.3
2017-07-08T00:46:46.131Z,19.3
2017-07-08T00:47:45.449Z,19.3
2017-07-08T00:48:45.027Z,19.3
2017-07-08T00:49:44.604Z,19.2
2017-07-08T00:50:43.923Z,19.2
2017-07-08T00:51:43.161Z,19.2
2017-07-08T00:52:42.463Z,19.2
2017-07-08T00:53:42.153Z,19.3
2017-07-08T00:54:41.098Z,19.2
2017-07-08T00:55:40.939Z,19.2
2017-07-08T00:56:40.140Z,19.3
2017-07-08T00:57:39.086Z,19.3
2017-07-08T00:58:38.778Z,19.3
2017-07-08T00:59:38.160Z,19.3
2017-07-08T01:00:37.348Z,19.3
2017-07-08T01:01:36.791Z,19.3
2017-07-08T01:02:36.226Z,19.3
2017-07-08T01:03:35.671Z,19.3
2017-07-08T01:04:34.747Z,19.3
2017-07-08T01:05:34.319Z,19.3
2017-07-08T01:06:33.644Z,19.3
2017-07-08T01:07:33.093Z,19.3
2017-07-08T01:08:32.294Z,19.3
2017-07-08T01:09:31.890Z,19.3
2017-07-08T01:10:31.770Z,19.3
2017-07-08T01:11:30.714Z,19.3
2017-07-08T01:13:29.171Z,19.2
2017-07-08T01:14:28.493Z,19.2
2017-07-08T01:15:28.315Z,19.2
2017-07-08T01:16:27.125Z,19.2
2017-07-08T01:17:26.562Z,19.1
2017-07-08T01:18:26.011Z,19.1
2017-07-08T01:19:26.152Z,19
2017-07-08T01:20:25.097Z,19
2017-07-08T01:21:23.961Z,19.1
2017-07-08T01:22:23.514Z,19
2017-07-08T01:23:22.708Z,19
2017-07-08T01:24:22.280Z,19
2017-07-08T01:25:21.995Z,19
2017-07-08T01:26:20.821Z,19
2017-07-08T01:27:20.213Z,19
2017-07-08T01:27:50.724Z,19
2017-07-08T01:28:21.477Z,18.9
2017-07-08T01:28:51.719Z,18.9
2017-07-08T01:30:18.469Z,19
2017-07-08T01:31:18.042Z,18.9
2017-07-08T01:32:17.361Z,18.9
2017-07-08T01:33:16.552Z,18.9
2017-07-08T01:34:15.930Z,18.9
2017-07-08T01:35:15.394Z,18.9
2017-07-08T01:36:14.843Z,18.8
2017-07-08T01:37:14.031Z,18.8
2017-07-08T01:38:13.352Z,18.8
2017-07-08T01:39:12.808Z,18.8
2017-07-08T01:40:12.496Z,18.8
2017-07-08T01:41:11.812Z,18.8
2017-07-08T01:42:10.637Z,18.7
2017-07-08T01:43:10.208Z,18.7
2017-07-08T01:44:09.780Z,18.7
2017-07-08T01:45:09.095Z,18.7
2017-07-08T01:46:08.543Z,18.7
2017-07-08T01:47:07.745Z,18.7
2017-07-08T01:48:07.442Z,18.6
2017-07-08T01:49:06.376Z,18.6
2017-07-08T01:50:06.073Z,18.7
2017-07-08T01:51:04.887Z,18.7
2017-07-08T01:52:04.459Z,18.6
2017-07-08T01:53:03.901Z,18.6
2017-07-08T01:54:03.087Z,18.7
2017-07-08T01:55:02.779Z,18.7
2017-07-08T01:56:01.839Z,18.7
2017-07-08T01:57:01.544Z,18.7
2017-07-08T01:58:00.982Z,18.6
2017-07-08T01:59:00.048Z,18.6
2017-07-08T01:59:59.491Z,18.6
2017-07-08T02:00:58.821Z,18.6
2017-07-08T02:01:58.273Z,18.6
2017-07-08T02:02:57.472Z,18.6
2017-07-08T02:03:56.798Z,18.6
2017-07-08T02:04:56.249Z,18.6
2017-07-08T02:05:55.833Z,18.6
2017-07-08T02:06:55.030Z,18.6
2017-07-08T02:07:54.227Z,18.6
2017-07-08T02:08:24.475Z,18.6
2017-07-08T02:08:55.097Z,18.5
2017-07-08T02:09:25.533Z,18.5
2017-07-08T02:09:56.735Z,18.5
2017-07-08T02:10:26.486Z,18.5
2017-07-08T02:11:51.727Z,18.5
2017-07-08T02:12:51.043Z,18.5
2017-07-08T02:13:50.873Z,18.5
2017-07-08T02:14:50.054Z,18.6
2017-07-08T02:15:48.995Z,18.5
2017-07-08T02:16:48.436Z,18.5
2017-07-08T02:17:47.631Z,18.5
2017-07-08T02:18:47.576Z,18.6
2017-07-08T02:19:46.759Z,18.5
2017-07-08T02:20:17.374Z,18.5
2017-07-08T02:20:47.995Z,18.5
2017-07-08T02:21:18.372Z,18.5
2017-07-08T02:21:48.870Z,18.5
2017-07-08T02:22:19.118Z,18.5
2017-07-08T02:24:44.319Z,18.5
2017-07-08T02:25:42.759Z,18.5
2017-07-08T02:26:42.214Z,18.5
2017-07-08T02:27:41.413Z,18.5
2017-07-08T02:28:40.608Z,18.5
2017-07-08T02:29:40.047Z,18.5
2017-07-08T02:30:39.243Z,18.5
2017-07-08T02:31:38.683Z,18.5
2017-07-08T02:32:38.377Z,18.5
2017-07-08T02:33:37.698Z,18.5
2017-07-08T02:34:37.019Z,18.5
2017-07-08T02:35:36.091Z,18.5
2017-07-08T02:36:35.811Z,18.4
2017-07-08T02:37:34.993Z,18.4
2017-07-08T02:38:34.451Z,18.4
2017-07-08T02:39:33.767Z,18.4
2017-07-08T02:40:33.092Z,18.4
2017-07-08T02:41:32.158Z,18.5
2017-07-08T02:42:31.739Z,18.4
2017-07-08T02:43:31.576Z,18.4
2017-07-08T02:44:30.525Z,18.4
2017-07-08T02:45:29.844Z,18.4
2017-07-08T02:46:29.294Z,18.4
2017-07-08T02:47:28.612Z,18.4
2017-07-08T02:48:28.195Z,18.4
2017-07-08T02:49:27.411Z,18.4
2017-07-08T02:50:26.601Z,18.4
2017-07-08T02:51:25.927Z,18.4
2017-07-08T02:52:25.241Z,18.4
2017-07-08T02:53:24.549Z,18.4
2017-07-08T02:54:24.122Z,18.4
2017-07-08T02:55:23.325Z,18.4
2017-07-08T02:56:22.555Z,18.4
2017-07-08T02:57:21.999Z,18.4
2017-07-08T02:59:20.959Z,18.4
2017-07-08T03:00:20.402Z,18.4
2017-07-08T03:01:19.471Z,18.4
2017-07-08T03:02:18.921Z,18.4
2017-07-08T03:02:49.047Z,18.4
2017-07-08T03:03:19.568Z,18.4
2017-07-08T03:04:17.509Z,18.4
2017-07-08T03:05:16.827Z,18.4
2017-07-08T03:06:16.142Z,18.4
2017-07-08T03:07:15.465Z,18.3
2017-07-08T03:08:15.299Z,18.3
2017-07-08T03:09:14.754Z,18.3
2017-07-08T03:10:13.714Z,18.3
2017-07-08T03:11:13.034Z,18.3
2017-07-08T03:12:12.485Z,18.3
2017-07-08T03:13:11.676Z,18.2
2017-07-08T03:14:10.985Z,18.3
2017-07-08T03:16:10.659Z,18.2
2017-07-08T03:17:09.217Z,18.2
2017-07-08T03:18:08.533Z,18.2
2017-07-08T03:19:08.252Z,18.2
2017-07-08T03:20:07.325Z,18.2
2017-07-08T03:21:06.272Z,18.2
2017-07-08T03:22:05.592Z,18.2
2017-07-08T03:23:05.530Z,18.2
2017-07-08T03:24:04.724Z,18.2
2017-07-08T03:25:04.048Z,18.1
2017-07-08T03:26:03.372Z,18.1
2017-07-08T03:27:02.944Z,18.2
2017-07-08T03:28:02.125Z,18.2
2017-07-08T03:29:01.459Z,18.1
2017-07-08T03:30:00.662Z,18.2
2017-07-08T03:31:00.110Z,18.1
2017-07-08T03:31:59.434Z,18.1
2017-07-08T03:32:58.951Z,18.1
2017-07-08T03:33:58.036Z,18.1
2017-07-08T03:34:57.408Z,18.1
2017-07-08T03:35:56.733Z,18.1
2017-07-08T03:36:56.554Z,18.1
2017-07-08T03:37:55.745Z,18.2
2017-07-08T03:38:55.001Z,18.2
2017-07-08T03:39:54.435Z,18.1
2017-07-08T03:40:53.636Z,18.1
2017-07-08T03:41:52.822Z,18.1
2017-07-08T03:42:52.137Z,18.1
2017-07-08T03:43:51.591Z,18.1
2017-07-08T03:44:51.167Z,18.1
2017-07-08T03:45:50.228Z,18.1
2017-07-08T03:46:49.552Z,18.1
2017-07-08T03:47:49.001Z,18.1
2017-07-08T03:48:48.317Z,18.1
2017-07-08T03:49:47.642Z,18.1
2017-07-08T03:50:47.347Z,18.1
2017-07-08T03:51:46.293Z,18.1
2017-07-08T03:52:45.740Z,18.1
2017-07-08T03:53:44.805Z,18.1
2017-07-08T03:54:44.500Z,18.1
2017-07-08T03:55:43.701Z,18.1
2017-07-08T03:56:43.157Z,18.1
2017-07-08T03:57:42.475Z,18.1
2017-07-08T03:58:42.044Z,18.1
2017-07-08T03:59:40.980Z,18
2017-07-08T04:00:40.426Z,18.1
2017-07-08T04:01:39.623Z,18.1
2017-07-08T04:02:39.192Z,18.1
2017-07-08T04:03:38.522Z,18.1
2017-07-08T04:04:38.097Z,18.1
2017-07-08T04:05:37.166Z,18.1
2017-07-08T04:06:36.365Z,18.1
2017-07-08T04:07:35.700Z,18.1
2017-07-08T04:08:35.139Z,18.1
2017-07-08T04:09:34.837Z,18.1
2017-07-08T04:10:34.158Z,18.1
2017-07-08T04:11:33.483Z,18.2
2017-07-08T04:12:32.669Z,18.2
2017-07-08T04:13:31.984Z,18.2
2017-07-08T04:14:31.551Z,18.2
2017-07-08T04:15:30.497Z,18.2
2017-07-08T04:16:30.201Z,18.2
2017-07-08T04:17:29.140Z,18.3
2017-07-08T04:18:28.971Z,18.3
2017-07-08T04:19:27.924Z,18.3
2017-07-08T04:20:27.448Z,18.3
2017-07-08T04:21:26.773Z,18.3
2017-07-08T04:22:25.840Z,18.3
2017-07-08T04:23:25.210Z,18.3
2017-07-08T04:24:24.778Z,18.3
2017-07-08T04:25:24.099Z,18.4
2017-07-08T04:27:22.920Z,18.4
2017-07-08T04:28:22.236Z,18.4
2017-07-08T04:29:21.432Z,18.4
2017-07-08T04:29:52.626Z,18.4
2017-07-08T04:31:20.143Z,18.4
2017-07-08T04:32:19.207Z,18.5
2017-07-08T04:33:18.913Z,18.4
2017-07-08T04:34:18.358Z,18.5
2017-07-08T04:35:17.869Z,18.5
2017-07-08T04:36:17.192Z,18.5
2017-07-08T04:37:16.402Z,18.5
2017-07-08T04:38:15.715Z,18.5
2017-07-08T04:39:15.154Z,18.5
2017-07-08T04:40:14.601Z,18.5
2017-07-08T04:41:13.669Z,18.5
2017-07-08T04:43:12.510Z,18.6
2017-07-08T04:44:11.960Z,18.6
2017-07-08T04:45:11.216Z,18.6
2017-07-08T04:46:10.422Z,18.6
2017-07-08T04:47:09.746Z,18.6
2017-07-08T04:48:09.186Z,18.6
2017-07-08T04:49:08.379Z,18.6
2017-07-08T04:50:07.958Z,18.6
2017-07-08T04:51:07.529Z,18.6
2017-07-08T04:52:06.593Z,18.6
2017-07-08T04:53:06.035Z,18.6
2017-07-08T04:54:05.238Z,18.6
2017-07-08T04:55:04.687Z,18.7
2017-07-08T04:56:04.004Z,18.7
2017-07-08T04:58:02.724Z,18.8
2017-07-08T04:59:01.805Z,18.8
2017-07-08T05:00:01.497Z,18.9
2017-07-08T05:01:00.707Z,18.9
2017-07-08T05:02:00.028Z,19
2017-07-08T05:02:59.095Z,19
2017-07-08T05:03:58.904Z,19
2017-07-08T05:04:57.964Z,19
2017-07-08T05:05:57.791Z,19
2017-07-08T05:06:56.851Z,19.1
2017-07-08T05:07:56.542Z,19.1
2017-07-08T05:08:55.347Z,19.1
2017-07-08T05:09:55.048Z,19.2
2017-07-08T05:10:54.374Z,19.2
2017-07-08T05:11:53.826Z,19.2
2017-07-08T05:12:52.892Z,19.2
2017-07-08T05:13:52.344Z,19.2
2017-07-08T05:14:51.926Z,19.2
2017-07-08T05:15:50.876Z,19.2
2017-07-08T05:16:50.450Z,19.2
2017-07-08T05:17:49.633Z,19.2
2017-07-08T05:18:48.958Z,19.3
2017-07-08T05:19:19.580Z,19.3
2017-07-08T05:19:50.192Z,19.3
2017-07-08T05:20:47.868Z,19.2
2017-07-08T05:21:47.198Z,19.3
2017-07-08T05:22:46.517Z,19.3
2017-07-08T05:23:45.710Z,19.3
2017-07-08T05:24:45.402Z,19.3
2017-07-08T05:25:44.470Z,19.3
2017-07-08T05:26:43.782Z,19.3
2017-07-08T05:27:43.226Z,19.4
2017-07-08T05:28:42.667Z,19.4
2017-07-08T05:29:42.104Z,19.4
2017-07-08T05:30:41.292Z,19.4
2017-07-08T05:31:40.611Z,19.5
2017-07-08T05:32:39.923Z,19.5
2017-07-08T05:33:39.547Z,19.5
2017-07-08T05:34:39.124Z,19.5
2017-07-08T05:35:38.069Z,19.6
2017-07-08T05:36:37.255Z,19.6
2017-07-08T05:37:37.345Z,19.7
2017-07-08T05:38:36.420Z,19.7
2017-07-08T05:39:35.628Z,19.8
2017-07-08T05:40:05.875Z,19.8
2017-07-08T05:40:36.474Z,19.7
2017-07-08T05:41:34.407Z,19.8
2017-07-08T05:42:33.726Z,19.8
2017-07-08T05:43:33.189Z,19.8
2017-07-08T05:44:32.758Z,19.9
2017-07-08T05:45:32.017Z,19.9
2017-07-08T05:46:31.081Z,19.9
2017-07-08T05:47:30.656Z,19.9
2017-07-08T05:48:29.846Z,20
2017-07-08T05:49:29.174Z,20
2017-07-08T05:50:28.630Z,20
2017-07-08T05:50:59.272Z,20
2017-07-08T05:51:29.897Z,20.1
2017-07-08T05:52:00.517Z,20.1
2017-07-08T05:53:26.637Z,20.1
2017-07-08T05:54:26.592Z,20.2
2017-07-08T05:55:25.287Z,20.2
2017-07-08T05:56:24.989Z,20.2
2017-07-08T05:57:24.424Z,20.3
2017-07-08T05:58:23.735Z,20.3
2017-07-08T05:59:23.053Z,20.3
2017-07-08T06:00:22.623Z,20.4
2017-07-08T06:01:22.107Z,20.4
2017-07-08T06:02:20.922Z,20.4
2017-07-08T06:03:20.738Z,20.4
2017-07-08T06:05:19.217Z,20.4
2017-07-08T06:06:18.555Z,20.4
2017-07-08T06:07:17.872Z,20.4
2017-07-08T06:08:17.315Z,20.4
2017-07-08T06:09:17.153Z,20.4
2017-07-08T06:10:16.623Z,20.4
2017-07-08T06:11:15.570Z,20.4
2017-07-08T06:12:15.023Z,20.5
2017-07-08T06:13:14.598Z,20.5
2017-07-08T06:14:13.540Z,20.5
2017-07-08T06:15:13.370Z,20.6
2017-07-08T06:17:12.210Z,20.6
2017-07-08T06:18:11.149Z,20.7
2017-07-08T06:19:10.721Z,20.7
2017-07-08T06:20:10.056Z,20.7
2017-07-08T06:22:08.641Z,20.8
2017-07-08T06:23:08.077Z,20.8
2017-07-08T06:24:07.776Z,20.8
2017-07-08T06:25:07.225Z,20.8
2017-07-08T06:26:06.422Z,20.8
2017-07-08T06:27:05.993Z,20.9
2017-07-08T06:28:05.311Z,20.9
2017-07-08T06:29:04.504Z,21
2017-07-08T06:30:03.940Z,21
2017-07-08T06:31:03.257Z,21
2017-07-08T06:32:02.440Z,21.1
2017-07-08T06:33:01.892Z,21.1
2017-07-08T06:34:01.342Z,21.1
2017-07-08T06:35:01.044Z,21
2017-07-08T06:36:59.744Z,21
2017-07-08T06:37:59.074Z,21
2017-07-08T06:38:58.396Z,21.1
2017-07-08T06:39:57.980Z,21.1
2017-07-08T06:40:57.301Z,21.2
2017-07-08T06:41:56.999Z,21.3
2017-07-08T06:42:55.946Z,21.3
2017-07-08T06:43:55.265Z,21.3
2017-07-08T06:44:55.214Z,21.3
2017-07-08T06:45:54.657Z,21.3
2017-07-08T06:46:53.589Z,21.3
2017-07-08T06:47:53.281Z,21.3
2017-07-08T06:48:52.478Z,21.4
2017-07-08T06:49:51.794Z,21.4
2017-07-08T06:51:50.624Z,21.4
2017-07-08T06:52:50.202Z,21.4
2017-07-08T06:53:49.402Z,21.2
2017-07-08T06:54:49.102Z,21.3
2017-07-08T06:55:48.286Z,21.2
2017-07-08T06:56:47.608Z,21.2
2017-07-08T06:57:47.270Z,21.3
2017-07-08T06:58:46.733Z,21.4
2017-07-08T06:59:45.942Z,21.4
2017-07-08T07:00:45.524Z,21.3
2017-07-08T07:01:44.723Z,21.3
2017-07-08T07:02:44.284Z,21.4
2017-07-08T07:03:43.977Z,21.4
2017-07-08T07:04:42.734Z,21.4
2017-07-08T07:05:42.427Z,21.4
2017-07-08T07:06:42.252Z,21.3
2017-07-08T07:07:41.189Z,21.3
2017-07-08T07:08:40.760Z,21.2
2017-07-08T07:09:39.954Z,21.2
2017-07-08T07:10:39.636Z,21.1
2017-07-08T07:11:39.739Z,21.2
2017-07-08T07:12:38.299Z,21.1
2017-07-08T07:13:37.863Z,21.1
2017-07-08T07:14:37.187Z,21.1
2017-07-08T07:15:36.882Z,21.1
2017-07-08T07:16:36.323Z,21.1
2017-07-08T07:17:35.299Z,21.1
2017-07-08T07:18:34.888Z,21
2017-07-08T07:19:34.342Z,21.1
2017-07-08T07:20:33.541Z,21.1
2017-07-08T07:21:32.992Z,21.1
2017-07-08T07:22:32.431Z,21.1
2017-07-08T07:23:31.746Z,21.2
2017-07-08T07:24:31.197Z,21.3
2017-07-08T07:25:30.523Z,21.4
2017-07-08T07:26:30.105Z,21.5
2017-07-08T07:27:29.802Z,21.6
2017-07-08T07:28:28.954Z,21.6
2017-07-08T07:29:28.157Z,21.6
2017-07-08T07:30:27.918Z,21.6
2017-07-08T07:31:27.126Z,21.6
2017-07-08T07:32:26.329Z,21.6
2017-07-08T07:33:25.895Z,21.6
2017-07-08T07:34:25.628Z,21.5
2017-07-08T07:35:24.818Z,21.5
2017-07-08T07:36:24.395Z,21.5
2017-07-08T07:37:23.463Z,21.5
2017-07-08T07:38:23.279Z,21.6
2017-07-08T07:38:53.529Z,21.6
2017-07-08T07:39:24.162Z,21.5
2017-07-08T07:39:54.795Z,21.5
2017-07-08T07:40:25.425Z,21.5
2017-07-08T07:40:56.062Z,21.5
2017-07-08T07:41:26.570Z,21.6
2017-07-08T07:41:56.708Z,21.6
2017-07-08T07:44:19.906Z,21.5
2017-07-08T07:46:18.421Z,21.5
2017-07-08T07:47:18.126Z,21.4
2017-07-08T07:48:17.317Z,21.5
2017-07-08T07:49:16.897Z,21.5
2017-07-08T07:50:16.220Z,21.5
2017-07-08T07:51:15.524Z,21.6
2017-07-08T07:52:15.225Z,21.6
2017-07-08T07:52:45.988Z,21.6
2017-07-08T07:53:16.371Z,21.6
2017-07-08T07:53:47.120Z,21.6
2017-07-08T07:54:17.512Z,21.6
2017-07-08T07:55:13.184Z,21.7
2017-07-08T07:56:12.816Z,21.7
2017-07-08T07:57:11.929Z,21.8
2017-07-08T07:58:11.378Z,21.8
2017-07-08T07:59:11.076Z,21.8
2017-07-08T07:59:41.713Z,21.8
2017-07-08T08:00:11.964Z,21.8
2017-07-08T08:01:09.772Z,21.8
2017-07-08T08:02:09.164Z,21.9
2017-07-08T08:03:08.369Z,21.9
2017-07-08T08:04:08.063Z,21.9
2017-07-08T08:05:07.702Z,22
2017-07-08T08:06:06.648Z,22
2017-07-08T08:07:06.141Z,21.9
2017-07-08T08:08:05.714Z,21.9
2017-07-08T08:09:05.071Z,22
2017-07-08T08:10:04.740Z,22.1
2017-07-08T08:10:34.990Z,22.1
2017-07-08T08:11:05.312Z,22.1
2017-07-08T08:11:35.329Z,22.1
2017-07-08T08:12:05.958Z,22
2017-07-08T08:12:35.967Z,22
2017-07-08T08:14:02.593Z,22.1
2017-07-08T08:16:01.164Z,22.1
2017-07-08T08:17:00.470Z,22.2
2017-07-08T08:18:00.103Z,22.1
2017-07-08T08:18:59.297Z,22.1
2017-07-08T08:19:58.747Z,22
2017-07-08T08:20:58.061Z,22
2017-07-08T08:21:57.876Z,22
2017-07-08T08:22:56.930Z,22
2017-07-08T08:23:56.491Z,22.1
2017-07-08T08:24:56.186Z,22
2017-07-08T08:25:55.503Z,22
2017-07-08T08:26:54.829Z,22
2017-07-08T08:27:54.525Z,22.1
2017-07-08T08:28:53.607Z,22.1
2017-07-08T08:29:53.440Z,22.1
2017-07-08T08:30:52.768Z,22.2
2017-07-08T08:31:52.221Z,22.2
2017-07-08T08:32:51.291Z,22.2
2017-07-08T08:33:51.125Z,22.3
2017-07-08T08:34:50.573Z,22.4
2017-07-08T08:35:49.890Z,22.4
2017-07-08T08:36:49.211Z,22.3
2017-07-08T08:37:48.665Z,22.3
2017-07-08T08:38:47.740Z,22.3
2017-07-08T08:39:47.310Z,22.3
2017-07-08T08:40:46.890Z,22.3
2017-07-08T08:41:46.483Z,22.4
2017-07-08T08:42:46.057Z,22.4
2017-07-08T08:43:45.249Z,22.4
2017-07-08T08:44:44.968Z,22.3
2017-07-08T08:45:43.908Z,22.3
2017-07-08T08:46:43.600Z,22.4
2017-07-08T08:47:43.042Z,22.5
2017-07-08T08:48:42.367Z,22.5
2017-07-08T08:49:41.923Z,22.5
2017-07-08T08:50:41.358Z,22.5
2017-07-08T08:51:40.672Z,22.5
2017-07-08T08:52:39.991Z,22.5
2017-07-08T08:53:39.575Z,22.6
2017-07-08T08:54:39.012Z,22.6
2017-07-08T08:55:38.461Z,22.7
2017-07-08T08:56:38.037Z,22.7
2017-07-08T08:57:37.362Z,22.7
2017-07-08T08:58:36.744Z,22.8
2017-07-08T08:59:36.436Z,22.7
2017-07-08T09:00:35.637Z,22.7
2017-07-08T09:01:35.336Z,22.8
2017-07-08T09:02:34.785Z,22.8
2017-07-08T09:04:33.383Z,22.7
2017-07-08T09:05:33.202Z,22.7
2017-07-08T09:06:32.531Z,22.7
2017-07-08T09:07:31.600Z,22.6
2017-07-08T09:08:31.303Z,22.6
2017-07-08T09:09:01.567Z,22.6
2017-07-08T09:09:31.939Z,22.5
2017-07-08T09:10:30.266Z,22.4
2017-07-08T09:11:29.715Z,22.5
2017-07-08T09:12:28.903Z,22.4
2017-07-08T09:13:28.347Z,22.4
2017-07-08T09:14:28.047Z,22.4
2017-07-08T09:15:27.494Z,22.4
2017-07-08T09:16:26.833Z,22.4
2017-07-08T09:17:26.033Z,22.4
2017-07-08T09:18:26.107Z,22.4
2017-07-08T09:19:25.056Z,22.5
2017-07-08T09:20:24.754Z,22.5
2017-07-08T09:21:23.954Z,22.6
2017-07-08T09:22:23.517Z,22.6
2017-07-08T09:23:22.834Z,22.6
2017-07-08T09:24:22.650Z,22.6
2017-07-08T09:25:21.841Z,22.6
2017-07-08T09:26:21.170Z,22.6
2017-07-08T09:27:20.621Z,22.7
2017-07-08T09:28:20.439Z,22.7
2017-07-08T09:29:19.884Z,22.7
2017-07-08T09:30:19.211Z,22.6
2017-07-08T09:31:18.404Z,22.7
2017-07-08T09:32:17.987Z,22.7
2017-07-08T09:34:17.009Z,22.8
2017-07-08T09:35:16.326Z,22.9
2017-07-08T09:36:15.525Z,22.9
2017-07-08T09:37:15.213Z,22.9
2017-07-08T09:38:14.406Z,22.9
2017-07-08T09:39:14.103Z,23
2017-07-08T09:40:13.670Z,23
2017-07-08T09:41:12.890Z,23
2017-07-08T09:42:12.356Z,23
2017-07-08T09:43:11.793Z,23.1
2017-07-08T09:44:11.744Z,22.8
2017-07-08T09:45:11.184Z,22.9
2017-07-08T09:46:10.512Z,22.9
2017-07-08T09:47:09.705Z,22.9
2017-07-08T09:48:09.440Z,22.9
2017-07-08T09:49:08.888Z,23
2017-07-08T09:50:08.084Z,22.9
2017-07-08T09:51:07.406Z,22.9
2017-07-08T09:52:07.234Z,22.9
2017-07-08T09:53:06.679Z,23
2017-07-08T09:54:05.868Z,23.1
2017-07-08T09:55:05.438Z,23
2017-07-08T09:56:04.629Z,23.1
2017-07-08T09:57:04.325Z,23.1
2017-07-08T09:58:03.774Z,23.2
2017-07-08T09:59:03.343Z,23.2
2017-07-08T10:00:02.614Z,23.3
2017-07-08T10:01:02.167Z,23.3
2017-07-08T10:01:32.783Z,23.3
2017-07-08T10:02:03.459Z,23.2
2017-07-08T10:02:34.207Z,23.2
2017-07-08T10:03:04.713Z,23.2
2017-07-08T10:03:35.211Z,23.2
2017-07-08T10:04:59.951Z,23
2017-07-08T10:05:59.656Z,22.9
2017-07-08T10:06:58.718Z,23
2017-07-08T10:07:58.684Z,22.9
2017-07-08T10:08:57.632Z,22.9
2017-07-08T10:09:57.332Z,22.8
2017-07-08T10:10:56.785Z,22.7
2017-07-08T10:11:56.246Z,22.7
2017-07-08T10:12:55.698Z,22.7
2017-07-08T10:13:55.333Z,22.7
2017-07-08T10:14:25.586Z,22.7
2017-07-08T10:14:56.111Z,22.7
2017-07-08T10:15:54.310Z,22.6
2017-07-08T10:16:53.771Z,22.6
2017-07-08T10:18:52.487Z,22.6
2017-07-08T10:19:52.013Z,22.6
2017-07-08T10:21:50.866Z,22.6
2017-07-08T10:22:50.390Z,22.5
2017-07-08T10:23:49.717Z,22.3
2017-07-08T10:24:49.162Z,22
2017-07-08T10:25:48.335Z,21.6
2017-07-08T10:26:48.150Z,21.4
2017-07-08T10:27:47.608Z,21.1
2017-07-08T10:28:47.175Z,20.8
2017-07-08T10:29:46.513Z,20.6
2017-07-08T10:30:45.581Z,20.5
2017-07-08T10:31:45.542Z,20.5
2017-07-08T10:32:44.862Z,20.3
2017-07-08T10:33:43.937Z,20.3
2017-07-08T10:35:43.039Z,20.1
2017-07-08T10:36:42.731Z,20
2017-07-08T10:37:42.058Z,20
2017-07-08T10:38:41.121Z,20
2017-07-08T10:39:40.817Z,20
2017-07-08T10:40:40.128Z,19.9
2017-07-08T10:41:39.683Z,19.9
2017-07-08T10:42:39.119Z,19.9
2017-07-08T10:43:38.692Z,19.9
2017-07-08T10:44:38.016Z,19.9
2017-07-08T10:45:37.330Z,19.9
2017-07-08T10:47:35.919Z,19.9
2017-07-08T10:48:35.746Z,20
2017-07-08T10:49:35.061Z,20
2017-07-08T10:50:34.646Z,20
2017-07-08T10:51:33.593Z,20
2017-07-08T10:52:33.294Z,20.1
2017-07-08T10:53:32.747Z,20.2
2017-07-08T10:54:32.068Z,20.2
2017-07-08T10:55:31.773Z,20.3
2017-07-08T10:56:31.088Z,20.4
2017-07-08T10:57:30.655Z,20.5
2017-07-08T10:58:29.855Z,20.5
2017-07-08T10:59:29.172Z,20.6
2017-07-08T11:00:28.638Z,20.6
2017-07-08T11:01:28.210Z,20.7
2017-07-08T11:02:27.785Z,20.8
2017-07-08T11:03:26.600Z,20.9
2017-07-08T11:04:25.918Z,20.9
2017-07-08T11:05:25.857Z,20.9
2017-07-08T11:06:25.171Z,20.9
2017-07-08T11:07:24.229Z,21
2017-07-08T11:08:24.059Z,21
2017-07-08T11:09:23.245Z,21
2017-07-08T11:10:22.800Z,21
2017-07-08T11:11:22.241Z,21.1
2017-07-08T11:12:21.684Z,21.2
2017-07-08T11:13:20.754Z,21.2
2017-07-08T11:13:51.269Z,21.2
2017-07-08T11:14:21.526Z,21.3
2017-07-08T11:15:19.525Z,21.3
2017-07-08T11:16:19.242Z,21.4
2017-07-08T11:17:18.556Z,21.4
2017-07-08T11:18:18.121Z,21.5
2017-07-08T11:19:17.445Z,21.6
2017-07-08T11:20:16.883Z,21.6
2017-07-08T11:21:16.328Z,21.8
2017-07-08T11:22:15.857Z,21.9
2017-07-08T11:23:15.053Z,22
2017-07-08T11:24:14.490Z,22.2
2017-07-08T11:24:44.864Z,22.2
2017-07-08T11:26:13.366Z,22.5
2017-07-08T11:27:12.820Z,22.6
2017-07-08T11:28:12.127Z,22.6
2017-07-08T11:29:11.829Z,22.6
2017-07-08T11:30:11.038Z,22.6
2017-07-08T11:31:10.491Z,22.6
2017-07-08T11:32:10.334Z,22.6
2017-07-08T11:33:09.396Z,22.5
2017-07-08T11:34:09.092Z,22.5
2017-07-08T11:35:08.036Z,22.5
2017-07-08T11:36:07.851Z,22.6
2017-07-08T11:37:07.302Z,22.6
2017-07-08T11:38:06.998Z,22.7
2017-07-08T11:39:05.931Z,22.7
2017-07-08T11:40:05.741Z,22.8
2017-07-08T11:41:04.936Z,22.9
2017-07-08T11:42:04.517Z,23
2017-07-08T11:43:03.832Z,23.1
2017-07-08T11:44:03.389Z,23.2
2017-07-08T11:45:02.461Z,23.4
2017-07-08T11:46:02.089Z,23.3
2017-07-08T11:47:01.793Z,23.3
2017-07-08T11:48:00.989Z,23.4
2017-07-08T11:49:00.567Z,23.5
2017-07-08T11:50:00.844Z,23.5
2017-07-08T11:50:59.415Z,23.5
2017-07-08T11:51:58.739Z,23.4
2017-07-08T11:52:58.456Z,23.3
2017-07-08T11:53:57.520Z,23.3
2017-07-08T11:54:57.348Z,23.2
2017-07-08T11:55:56.672Z,23.3
2017-07-08T11:56:56.128Z,23.3
2017-07-08T11:57:55.964Z,23.5
2017-07-08T11:58:54.925Z,23.6
2017-07-08T11:59:54.510Z,23.6
2017-07-08T12:00:54.009Z,23.6
2017-07-08T12:01:53.334Z,23.6
2017-07-08T12:02:53.024Z,23.6
2017-07-08T12:03:52.338Z,23.6
2017-07-08T12:04:51.531Z,23.6
2017-07-08T12:05:51.361Z,23.7
2017-07-08T12:06:50.551Z,23.7
2017-07-08T12:07:50.370Z,23.6
2017-07-08T12:09:49.205Z,23.5
2017-07-08T12:10:48.543Z,23.4
2017-07-08T12:11:47.875Z,23.4
2017-07-08T12:12:47.564Z,23.4
2017-07-08T12:13:46.891Z,23.4
2017-07-08T12:14:46.339Z,23.4
2017-07-08T12:16:45.303Z,23.6
2017-07-08T12:17:44.758Z,23.7
2017-07-08T12:18:44.220Z,23.7
2017-07-08T12:19:43.662Z,23.8
2017-07-08T12:20:43.369Z,23.9
2017-07-08T12:21:42.443Z,24
2017-07-08T12:22:42.144Z,24.1
2017-07-08T12:23:41.342Z,24.2
2017-07-08T12:24:40.917Z,24.4
2017-07-08T12:25:40.615Z,24.4
2017-07-08T12:26:40.059Z,24.3
2017-07-08T12:27:39.369Z,24.1
2017-07-08T12:28:38.814Z,24.1
2017-07-08T12:29:38.395Z,24
2017-07-08T12:30:38.092Z,24
2017-07-08T12:31:37.036Z,23.9
2017-07-08T12:32:36.351Z,24
2017-07-08T12:33:36.296Z,24.3
2017-07-08T12:34:35.733Z,24.3
2017-07-08T12:35:35.445Z,24.2
2017-07-08T12:36:34.771Z,24.2
2017-07-08T12:37:33.963Z,24.2
2017-07-08T12:38:33.415Z,24.4
2017-07-08T12:39:33.224Z,24.6
2017-07-08T12:40:32.580Z,24.8
2017-07-08T12:41:31.823Z,25
2017-07-08T12:42:02.585Z,25
2017-07-08T12:43:31.093Z,25.4
2017-07-08T12:45:29.940Z,25.5
2017-07-08T12:46:29.386Z,25.5
2017-07-08T12:47:29.008Z,25.4
2017-07-08T12:48:28.461Z,25.3
2017-07-08T12:49:28.162Z,25
2017-07-08T12:50:27.051Z,24.7
2017-07-08T12:51:27.148Z,24.5
2017-07-08T12:52:26.337Z,24.4
2017-07-08T12:53:25.913Z,24.4
2017-07-08T12:53:56.287Z,24.4
2017-07-08T12:54:26.930Z,24.5
2017-07-08T12:55:24.740Z,24.4
2017-07-08T12:57:23.693Z,24.4
2017-07-08T12:58:23.507Z,24.4
2017-07-08T12:59:22.707Z,24.7
2017-07-08T13:00:22.407Z,24.7
2017-07-08T13:01:22.533Z,24.6
2017-07-08T13:02:21.224Z,24.5
2017-07-08T13:03:20.669Z,24.4
2017-07-08T13:04:20.369Z,24.5
2017-07-08T13:05:19.818Z,24.4
2017-07-08T13:06:19.267Z,24.4
2017-07-08T13:07:18.463Z,24.3
2017-07-08T13:08:18.279Z,24.2
2017-07-08T13:09:17.612Z,24.2
2017-07-08T13:10:17.438Z,24.3
2017-07-08T13:11:16.769Z,24.3
2017-07-08T13:12:16.337Z,24.3
2017-07-08T13:13:15.916Z,24.2